sensor_id;sensor_type;location;lat;lon;timestamp;pressure;altitude;pressure_sealevel;temperature;humidity
967;BME280;56108;48.730;9.304;2023-01-16T00:01:43;96514.88;;;1.07;100.00
967;BME280;56108;48.730;9.304;2023-01-16T00:03:51;96507.72;;;1.10;100.00
967;BME280;56108;48.730;9.304;2023-01-16T00:06:02;96502.63;;;1.24;99.26
967;BME280;56108;48.730;9.304;2023-01-16T00:08:10;96500.00;;;1.24;99.80
967;BME280;56108;48.730;9.304;2023-01-16T00:10:18;96498.47;;;1.38;98.68
967;BME280;56108;48.730;9.304;2023-01-16T00:12:28;96493.25;;;1.38;98.98
967;BME280;56108;48.730;9.304;2023-01-16T00:14:35;96481.28;;;1.32;99.83
967;BME280;56108;48.730;9.304;2023-01-16T00:16:43;96479.66;;;1.29;99.92
967;BME280;56108;48.730;9.304;2023-01-16T00:18:52;96472.28;;;1.20;100.00
967;BME280;56108;48.730;9.304;2023-01-16T00:21:02;96472.59;;;1.32;100.00
967;BME280;56108;48.730;9.304;2023-01-16T00:23:11;96473.19;;;1.19;99.70
967;BME280;56108;48.730;9.304;2023-01-16T00:25:19;96470.78;;;1.15;99.91
967;BME280;56108;48.730;9.304;2023-01-16T00:27:27;96475.13;;;1.16;99.85
967;BME280;56108;48.730;9.304;2023-01-16T00:29:35;96456.00;;;1.14;100.00
967;BME280;56108;48.730;9.304;2023-01-16T00:31:43;96462.03;;;1.16;100.00
967;BME280;56108;48.730;9.304;2023-01-16T00:33:53;96456.94;;;1.13;100.00
967;BME280;56108;48.730;9.304;2023-01-16T00:36:04;96450.94;;;1.11;100.00
967;BME280;56108;48.730;9.304;2023-01-16T00:38:13;96443.59;;;1.17;100.00
967;BME280;56108;48.730;9.304;2023-01-16T00:40:22;96445.59;;;1.12;100.00
967;BME280;56108;48.730;9.304;2023-01-16T00:44:53;96432.41;;;1.14;100.00
967;BME280;56108;48.730;9.304;2023-01-16T00:47:01;96425.63;;;1.10;100.00
967;BME280;56108;48.730;9.304;2023-01-16T00:49:09;96416.56;;;1.17;100.00
967;BME280;56108;48.730;9.304;2023-01-16T00:51:20;96412.84;;;1.21;99.92
967;BME280;56108;48.730;9.304;2023-01-16T00:53:28;96412.63;;;1.25;99.41
967;BME280;56108;48.730;9.304;2023-01-16T00:55:38;96402.75;;;1.30;98.56
967;BME280;56108;48.730;9.304;2023-01-16T00:57:47;96397.75;;;1.26;98.91
967;BME280;56108;48.730;9.304;2023-01-16T00:59:55;96391.81;;;1.22;99.36
967;BME280;56108;48.730;9.304;2023-01-16T01:02:03;96393.81;;;1.17;99.34
967;BME280;56108;48.730;9.304;2023-01-16T01:04:11;96401.69;;;1.17;99.39
967;BME280;56108;48.730;9.304;2023-01-16T01:06:22;96386.28;;;1.11;99.69
967;BME280;56108;48.730;9.304;2023-01-16T01:08:30;96379.41;;;1.09;99.89
967;BME280;56108;48.730;9.304;2023-01-16T01:10:38;96382.63;;;1.14;99.37
967;BME280;56108;48.730;9.304;2023-01-16T01:12:46;96379.16;;;1.13;99.26
967;BME280;56108;48.730;9.304;2023-01-16T01:14:54;96382.63;;;1.14;99.76
967;BME280;56108;48.730;9.304;2023-01-16T01:17:02;96373.84;;;1.15;99.24
967;BME280;56108;48.730;9.304;2023-01-16T01:19:12;96362.59;;;1.13;99.50
967;BME280;56108;48.730;9.304;2023-01-16T01:21:22;96361.34;;;1.20;98.96
967;BME280;56108;48.730;9.304;2023-01-16T01:23:31;96363.31;;;1.16;99.03
967;BME280;56108;48.730;9.304;2023-01-16T01:25:39;96356.53;;;1.12;99.53
967;BME280;56108;48.730;9.304;2023-01-16T01:27:47;96353.81;;;1.14;99.60
967;BME280;56108;48.730;9.304;2023-01-16T01:29:55;96348.34;;;1.18;98.98
967;BME280;56108;48.730;9.304;2023-01-16T01:32:03;96340.56;;;1.17;98.82
967;BME280;56108;48.730;9.304;2023-01-16T01:34:16;96345.28;;;1.10;99.39
967;BME280;56108;48.730;9.304;2023-01-16T01:36:42;96334.25;;;1.03;100.00
967;BME280;56108;48.730;9.304;2023-01-16T01:38:50;96336.13;;;1.01;100.00
967;BME280;56108;48.730;9.304;2023-01-16T01:40:58;96335.75;;;0.92;100.00
967;BME280;56108;48.730;9.304;2023-01-16T01:43:11;96334.75;;;0.94;100.00
967;BME280;56108;48.730;9.304;2023-01-16T01:45:24;96330.13;;;0.82;100.00
967;BME280;56108;48.730;9.304;2023-01-16T01:47:35;96331.59;;;0.88;100.00
967;BME280;56108;48.730;9.304;2023-01-16T01:49:45;96326.34;;;0.88;100.00
967;BME280;56108;48.730;9.304;2023-01-16T01:51:58;96317.81;;;0.84;100.00
967;BME280;56108;48.730;9.304;2023-01-16T01:54:11;96312.66;;;0.83;100.00
967;BME280;56108;48.730;9.304;2023-01-16T01:56:24;96318.91;;;0.80;100.00
967;BME280;56108;48.730;9.304;2023-01-16T01:58:35;96313.06;;;0.75;100.00
967;BME280;56108;48.730;9.304;2023-01-16T02:00:52;96303.56;;;0.72;100.00
967;BME280;56108;48.730;9.304;2023-01-16T02:03:05;96294.72;;;0.75;100.00
967;BME280;56108;48.730;9.304;2023-01-16T02:05:20;96285.56;;;0.66;100.00
967;BME280;56108;48.730;9.304;2023-01-16T02:07:33;96275.38;;;0.77;100.00
967;BME280;56108;48.730;9.304;2023-01-16T02:09:41;96271.31;;;0.72;100.00
967;BME280;56108;48.730;9.304;2023-01-16T02:11:51;96263.75;;;0.66;100.00
967;BME280;56108;48.730;9.304;2023-01-16T02:14:04;96252.22;;;0.70;100.00
967;BME280;56108;48.730;9.304;2023-01-16T02:16:13;96248.66;;;0.71;100.00
967;BME280;56108;48.730;9.304;2023-01-16T02:18:33;96235.34;;;0.75;100.00
967;BME280;56108;48.730;9.304;2023-01-16T02:21:09;96227.47;;;0.75;100.00
967;BME280;56108;48.730;9.304;2023-01-16T02:24:00;96214.25;;;0.78;100.00
967;BME280;56108;48.730;9.304;2023-01-16T02:26:43;96211.53;;;0.80;100.00
967;BME280;56108;48.730;9.304;2023-01-16T02:29:33;96202.59;;;0.84;100.00
967;BME280;56108;48.730;9.304;2023-01-16T02:31:55;96199.88;;;0.86;100.00
967;BME280;56108;48.730;9.304;2023-01-16T02:34:19;96191.94;;;0.87;100.00
967;BME280;56108;48.730;9.304;2023-01-16T02:36:40;96183.81;;;0.76;100.00
967;BME280;56108;48.730;9.304;2023-01-16T02:38:55;96180.34;;;0.75;100.00
967;BME280;56108;48.730;9.304;2023-01-16T02:41:15;96174.88;;;0.80;100.00
967;BME280;56108;48.730;9.304;2023-01-16T02:43:32;96167.09;;;0.63;100.00
967;BME280;56108;48.730;9.304;2023-01-16T02:45:43;96161.16;;;0.59;100.00
967;BME280;56108;48.730;9.304;2023-01-16T02:48:00;96158.09;;;0.51;100.00
967;BME280;56108;48.730;9.304;2023-01-16T02:50:18;96149.38;;;0.50;100.00
967;BME280;56108;48.730;9.304;2023-01-16T02:52:32;96142.63;;;0.46;100.00
967;BME280;56108;48.730;9.304;2023-01-16T02:54:47;96135.03;;;0.42;100.00
967;BME280;56108;48.730;9.304;2023-01-16T02:57:03;96128.69;;;0.46;100.00
967;BME280;56108;48.730;9.304;2023-01-16T02:59:14;96114.16;;;0.40;100.00
967;BME280;56108;48.730;9.304;2023-01-16T03:01:23;96107.00;;;0.44;100.00
967;BME280;56108;48.730;9.304;2023-01-16T03:03:40;96107.09;;;0.42;100.00
967;BME280;56108;48.730;9.304;2023-01-16T03:05:51;96098.47;;;0.40;100.00
967;BME280;56108;48.730;9.304;2023-01-16T03:08:14;96089.44;;;0.46;100.00
967;BME280;56108;48.730;9.304;2023-01-16T03:10:42;96079.06;;;0.44;100.00
967;BME280;56108;48.730;9.304;2023-01-16T03:13:02;96083.53;;;0.42;100.00
967;BME280;56108;48.730;9.304;2023-01-16T03:15:21;96070.13;;;0.48;100.00
967;BME280;56108;48.730;9.304;2023-01-16T03:17:39;96058.97;;;0.45;100.00
967;BME280;56108;48.730;9.304;2023-01-16T03:20:10;96058.81;;;0.48;100.00
967;BME280;56108;48.730;9.304;2023-01-16T03:22:27;96052.97;;;0.43;100.00
967;BME280;56108;48.730;9.304;2023-01-16T03:24:55;96038.97;;;0.44;100.00
967;BME280;56108;48.730;9.304;2023-01-16T03:27:09;96039.13;;;0.57;100.00
967;BME280;56108;48.730;9.304;2023-01-16T03:29:27;96028.16;;;0.66;100.00
967;BME280;56108;48.730;9.304;2023-01-16T03:31:41;96026.03;;;0.72;100.00
967;BME280;56108;48.730;9.304;2023-01-16T03:33:55;96027.22;;;0.67;100.00
967;BME280;56108;48.730;9.304;2023-01-16T03:36:13;96022.00;;;0.51;100.00
967;BME280;56108;48.730;9.304;2023-01-16T03:38:25;96014.22;;;0.49;100.00
967;BME280;56108;48.730;9.304;2023-01-16T03:40:38;96011.63;;;0.49;100.00
967;BME280;56108;48.730;9.304;2023-01-16T03:42:52;96009.09;;;0.48;100.00
967;BME280;56108;48.730;9.304;2023-01-16T03:45:05;95997.69;;;0.49;100.00
967;BME280;56108;48.730;9.304;2023-01-16T03:47:19;95986.44;;;0.47;100.00
967;BME280;56108;48.730;9.304;2023-01-16T03:49:31;95983.81;;;0.47;100.00
967;BME280;56108;48.730;9.304;2023-01-16T03:51:49;95979.03;;;0.39;100.00
967;BME280;56108;48.730;9.304;2023-01-16T03:54:02;95981.06;;;0.34;100.00
967;BME280;56108;48.730;9.304;2023-01-16T03:56:15;95969.59;;;0.37;100.00
967;BME280;56108;48.730;9.304;2023-01-16T03:58:31;95958.25;;;0.36;100.00
967;BME280;56108;48.730;9.304;2023-01-16T04:00:48;95954.78;;;0.36;100.00
967;BME280;56108;48.730;9.304;2023-01-16T04:03:04;95949.16;;;0.43;100.00
967;BME280;56108;48.730;9.304;2023-01-16T04:05:17;95940.28;;;0.46;100.00
967;BME280;56108;48.730;9.304;2023-01-16T04:07:31;95932.06;;;0.52;100.00
967;BME280;56108;48.730;9.304;2023-01-16T04:09:44;95925.00;;;0.54;100.00
967;BME280;56108;48.730;9.304;2023-01-16T04:11:54;95912.63;;;0.72;100.00
967;BME280;56108;48.730;9.304;2023-01-16T04:14:03;95900.25;;;0.60;100.00
967;BME280;56108;48.730;9.304;2023-01-16T04:16:14;95900.81;;;0.65;100.00
967;BME280;56108;48.730;9.304;2023-01-16T04:18:27;95898.38;;;0.62;100.00
967;BME280;56108;48.730;9.304;2023-01-16T04:20:37;95886.53;;;0.70;100.00
967;BME280;56108;48.730;9.304;2023-01-16T04:22:50;95885.19;;;0.93;100.00
967;BME280;56108;48.730;9.304;2023-01-16T04:25:00;95875.97;;;0.72;100.00
967;BME280;56108;48.730;9.304;2023-01-16T04:27:09;95870.09;;;0.68;100.00
967;BME280;56108;48.730;9.304;2023-01-16T04:29:17;95863.06;;;0.69;100.00
967;BME280;56108;48.730;9.304;2023-01-16T04:31:25;95861.78;;;0.76;100.00
967;BME280;56108;48.730;9.304;2023-01-16T04:33:33;95857.94;;;0.82;100.00
967;BME280;56108;48.730;9.304;2023-01-16T04:35:43;95850.47;;;0.75;100.00
967;BME280;56108;48.730;9.304;2023-01-16T04:37:53;95840.47;;;0.82;100.00
967;BME280;56108;48.730;9.304;2023-01-16T04:40:02;95836.78;;;0.70;100.00
967;BME280;56108;48.730;9.304;2023-01-16T04:42:13;95829.69;;;0.72;100.00
967;BME280;56108;48.730;9.304;2023-01-16T04:44:21;95819.03;;;0.75;100.00
967;BME280;56108;48.730;9.304;2023-01-16T04:46:30;95808.19;;;0.82;100.00
967;BME280;56108;48.730;9.304;2023-01-16T04:48:39;95808.31;;;0.80;100.00
967;BME280;56108;48.730;9.304;2023-01-16T04:50:49;95798.56;;;0.82;100.00
967;BME280;56108;48.730;9.304;2023-01-16T04:53:00;95799.88;;;0.75;100.00
967;BME280;56108;48.730;9.304;2023-01-16T04:55:10;95789.97;;;0.80;100.00
967;BME280;56108;48.730;9.304;2023-01-16T04:57:18;95784.63;;;0.82;100.00
967;BME280;56108;48.730;9.304;2023-01-16T04:59:26;95776.22;;;0.76;100.00
967;BME280;56108;48.730;9.304;2023-01-16T05:01:34;95771.06;;;0.75;100.00
967;BME280;56108;48.730;9.304;2023-01-16T05:03:42;95768.25;;;0.78;100.00
967;BME280;56108;48.730;9.304;2023-01-16T05:05:51;95770.03;;;0.77;100.00
967;BME280;56108;48.730;9.304;2023-01-16T05:08:02;95762.00;;;0.81;100.00
967;BME280;56108;48.730;9.304;2023-01-16T05:10:26;95751.44;;;0.82;100.00
967;BME280;56108;48.730;9.304;2023-01-16T05:12:36;95748.75;;;0.84;100.00
967;BME280;56108;48.730;9.304;2023-01-16T05:14:46;95744.41;;;0.83;100.00
967;BME280;56108;48.730;9.304;2023-01-16T05:16:54;95733.31;;;0.79;100.00
967;BME280;56108;48.730;9.304;2023-01-16T05:19:02;95729.56;;;0.83;100.00
967;BME280;56108;48.730;9.304;2023-01-16T05:21:10;95719.94;;;0.84;100.00
967;BME280;56108;48.730;9.304;2023-01-16T05:23:20;95710.75;;;0.76;100.00
967;BME280;56108;48.730;9.304;2023-01-16T05:25:28;95708.25;;;0.75;100.00
967;BME280;56108;48.730;9.304;2023-01-16T05:27:37;95693.75;;;0.84;100.00
967;BME280;56108;48.730;9.304;2023-01-16T05:29:45;95681.19;;;0.89;100.00
967;BME280;56108;48.730;9.304;2023-01-16T05:31:53;95682.03;;;1.03;100.00
967;BME280;56108;48.730;9.304;2023-01-16T05:34:01;95676.41;;;1.10;99.42
967;BME280;56108;48.730;9.304;2023-01-16T05:36:09;95669.84;;;1.17;98.26
967;BME280;56108;48.730;9.304;2023-01-16T05:38:20;95670.00;;;1.28;97.62
967;BME280;56108;48.730;9.304;2023-01-16T05:40:28;95664.47;;;1.33;97.07
967;BME280;56108;48.730;9.304;2023-01-16T05:42:37;95658.56;;;1.43;95.81
967;BME280;56108;48.730;9.304;2023-01-16T05:44:44;95654.50;;;1.52;95.04
967;BME280;56108;48.730;9.304;2023-01-16T05:46:52;95646.53;;;1.53;94.86
967;BME280;56108;48.730;9.304;2023-01-16T05:49:00;95641.94;;;1.57;94.40
967;BME280;56108;48.730;9.304;2023-01-16T05:51:09;95635.22;;;1.53;94.56
967;BME280;56108;48.730;9.304;2023-01-16T05:53:20;95623.13;;;1.50;94.68
967;BME280;56108;48.730;9.304;2023-01-16T05:55:27;95625.44;;;1.55;94.59
967;BME280;56108;48.730;9.304;2023-01-16T05:57:35;95611.81;;;1.50;94.43
967;BME280;56108;48.730;9.304;2023-01-16T05:59:43;95608.34;;;1.49;94.43
967;BME280;56108;48.730;9.304;2023-01-16T06:01:54;95596.22;;;1.61;93.40
967;BME280;56108;48.730;9.304;2023-01-16T06:04:03;95585.94;;;1.58;93.49
967;BME280;56108;48.730;9.304;2023-01-16T06:06:11;95577.06;;;1.73;92.48
967;BME280;56108;48.730;9.304;2023-01-16T06:08:24;95582.72;;;1.80;91.18
967;BME280;56108;48.730;9.304;2023-01-16T06:10:32;95580.22;;;1.78;91.71
967;BME280;56108;48.730;9.304;2023-01-16T06:12:40;95574.13;;;1.78;91.70
967;BME280;56108;48.730;9.304;2023-01-16T06:14:48;95572.34;;;1.78;91.68
967;BME280;56108;48.730;9.304;2023-01-16T06:16:56;95559.13;;;1.67;92.16
967;BME280;56108;48.730;9.304;2023-01-16T06:19:03;95548.94;;;1.63;92.61
967;BME280;56108;48.730;9.304;2023-01-16T06:21:11;95550.41;;;1.67;92.23
967;BME280;56108;48.730;9.304;2023-01-16T06:23:19;95543.47;;;1.66;92.04
967;BME280;56108;48.730;9.304;2023-01-16T06:25:29;95526.91;;;1.65;92.64
967;BME280;56108;48.730;9.304;2023-01-16T06:27:38;95523.03;;;1.58;92.39
967;BME280;56108;48.730;9.304;2023-01-16T06:29:48;95516.19;;;1.55;92.96
967;BME280;56108;48.730;9.304;2023-01-16T06:31:56;95512.00;;;1.53;92.83
967;BME280;56108;48.730;9.304;2023-01-16T06:34:04;95512.53;;;1.58;92.58
967;BME280;56108;48.730;9.304;2023-01-16T06:36:12;95497.53;;;1.60;91.94
967;BME280;56108;48.730;9.304;2023-01-16T06:38:20;95496.41;;;1.64;91.80
967;BME280;56108;48.730;9.304;2023-01-16T06:40:30;95485.91;;;1.64;91.52
967;BME280;56108;48.730;9.304;2023-01-16T06:42:38;95485.78;;;1.66;91.25
967;BME280;56108;48.730;9.304;2023-01-16T06:44:46;95483.69;;;1.71;90.96
967;BME280;56108;48.730;9.304;2023-01-16T06:47:05;95475.00;;;1.70;90.86
967;BME280;56108;48.730;9.304;2023-01-16T06:49:13;95469.13;;;1.67;90.86
967;BME280;56108;48.730;9.304;2023-01-16T06:51:23;95453.31;;;1.68;91.40
967;BME280;56108;48.730;9.304;2023-01-16T06:53:31;95458.44;;;1.57;91.92
967;BME280;56108;48.730;9.304;2023-01-16T06:55:45;95464.09;;;1.64;91.39
967;BME280;56108;48.730;9.304;2023-01-16T06:57:53;95460.72;;;1.62;91.45
967;BME280;56108;48.730;9.304;2023-01-16T07:00:01;95449.84;;;1.42;92.80
967;BME280;56108;48.730;9.304;2023-01-16T07:02:10;95443.09;;;1.51;92.69
967;BME280;56108;48.730;9.304;2023-01-16T07:04:20;95443.00;;;1.40;93.18
967;BME280;56108;48.730;9.304;2023-01-16T07:06:28;95440.91;;;1.45;93.54
967;BME280;56108;48.730;9.304;2023-01-16T07:08:36;95435.16;;;1.52;92.59
967;BME280;56108;48.730;9.304;2023-01-16T07:10:46;95421.94;;;1.54;92.45
967;BME280;56108;48.730;9.304;2023-01-16T07:12:54;95419.97;;;1.58;91.97
967;BME280;56108;48.730;9.304;2023-01-16T07:15:04;95406.94;;;1.69;91.63
967;BME280;56108;48.730;9.304;2023-01-16T07:17:24;95407.91;;;1.68;91.14
967;BME280;56108;48.730;9.304;2023-01-16T07:19:44;95397.81;;;1.62;91.27
967;BME280;56108;48.730;9.304;2023-01-16T07:22:05;95398.75;;;1.61;91.62
967;BME280;56108;48.730;9.304;2023-01-16T07:24:27;95398.44;;;1.65;91.31
967;BME280;56108;48.730;9.304;2023-01-16T07:26:41;95392.56;;;1.62;91.77
967;BME280;56108;48.730;9.304;2023-01-16T07:28:51;95389.63;;;1.66;91.96
967;BME280;56108;48.730;9.304;2023-01-16T07:31:02;95386.69;;;1.71;91.58
967;BME280;56108;48.730;9.304;2023-01-16T07:33:11;95380.63;;;1.70;91.55
967;BME280;56108;48.730;9.304;2023-01-16T07:35:20;95372.88;;;1.69;91.23
967;BME280;56108;48.730;9.304;2023-01-16T07:37:28;95375.47;;;1.69;91.62
967;BME280;56108;48.730;9.304;2023-01-16T07:39:36;95369.69;;;1.76;90.70
967;BME280;56108;48.730;9.304;2023-01-16T07:41:47;95371.34;;;1.90;89.44
967;BME280;56108;48.730;9.304;2023-01-16T07:44:02;95374.09;;;1.89;89.56
967;BME280;56108;48.730;9.304;2023-01-16T07:46:10;95368.41;;;1.95;88.94
967;BME280;56108;48.730;9.304;2023-01-16T07:48:19;95365.22;;;2.02;88.88
967;BME280;56108;48.730;9.304;2023-01-16T07:50:27;95359.88;;;2.04;88.25
967;BME280;56108;48.730;9.304;2023-01-16T07:52:35;95352.94;;;2.03;88.59
967;BME280;56108;48.730;9.304;2023-01-16T07:54:43;95356.19;;;2.06;87.18
967;BME280;56108;48.730;9.304;2023-01-16T07:56:53;95349.78;;;2.11;86.81
967;BME280;56108;48.730;9.304;2023-01-16T07:59:02;95346.84;;;2.15;85.78
967;BME280;56108;48.730;9.304;2023-01-16T08:01:10;95349.00;;;2.21;85.12
967;BME280;56108;48.730;9.304;2023-01-16T08:03:19;95340.06;;;2.24;84.11
967;BME280;56108;48.730;9.304;2023-01-16T08:05:27;95341.91;;;2.34;83.82
967;BME280;56108;48.730;9.304;2023-01-16T08:07:35;95328.94;;;2.44;83.56
967;BME280;56108;48.730;9.304;2023-01-16T08:09:43;95319.16;;;2.35;83.24
967;BME280;56108;48.730;9.304;2023-01-16T08:11:53;95317.94;;;2.39;83.15
967;BME280;56108;48.730;9.304;2023-01-16T08:14:02;95314.31;;;2.29;83.38
967;BME280;56108;48.730;9.304;2023-01-16T08:16:09;95309.19;;;2.27;83.78
967;BME280;56108;48.730;9.304;2023-01-16T08:18:18;95311.38;;;2.33;83.76
967;BME280;56108;48.730;9.304;2023-01-16T08:20:26;95292.16;;;2.33;83.47
967;BME280;56108;48.730;9.304;2023-01-16T08:22:34;95288.25;;;2.39;82.74
967;BME280;56108;48.730;9.304;2023-01-16T08:24:42;95271.53;;;2.40;82.54
967;BME280;56108;48.730;9.304;2023-01-16T08:26:52;95280.25;;;2.40;82.31
967;BME280;56108;48.730;9.304;2023-01-16T08:29:01;95278.13;;;2.45;81.56
967;BME280;56108;48.730;9.304;2023-01-16T08:31:11;95273.16;;;2.53;80.60
967;BME280;56108;48.730;9.304;2023-01-16T08:33:20;95273.50;;;2.60;79.72
967;BME280;56108;48.730;9.304;2023-01-16T08:35:28;95263.03;;;2.71;78.77
967;BME280;56108;48.730;9.304;2023-01-16T08:37:36;95258.03;;;2.68;79.14
967;BME280;56108;48.730;9.304;2023-01-16T08:39:45;95263.16;;;2.70;78.72
967;BME280;56108;48.730;9.304;2023-01-16T08:41:55;95250.28;;;2.78;78.13
967;BME280;56108;48.730;9.304;2023-01-16T08:44:18;95245.88;;;2.78;77.57
967;BME280;56108;48.730;9.304;2023-01-16T08:46:41;95243.03;;;2.93;75.79
967;BME280;56108;48.730;9.304;2023-01-16T08:49:03;95238.50;;;2.95;75.08
967;BME280;56108;48.730;9.304;2023-01-16T08:51:24;95241.72;;;2.98;75.21
967;BME280;56108;48.730;9.304;2023-01-16T08:53:32;95239.69;;;3.02;75.60
967;BME280;56108;48.730;9.304;2023-01-16T08:55:40;95236.00;;;3.04;74.48
967;BME280;56108;48.730;9.304;2023-01-16T08:57:50;95240.28;;;3.05;73.81
967;BME280;56108;48.730;9.304;2023-01-16T08:59:58;95242.09;;;3.16;72.93
967;BME280;56108;48.730;9.304;2023-01-16T09:02:07;95242.44;;;3.11;73.16
967;BME280;56108;48.730;9.304;2023-01-16T09:04:19;95236.13;;;3.14;73.25
967;BME280;56108;48.730;9.304;2023-01-16T09:06:27;95246.84;;;3.11;73.42
967;BME280;56108;48.730;9.304;2023-01-16T09:08:35;95248.53;;;3.12;72.82
967;BME280;56108;48.730;9.304;2023-01-16T09:10:43;95243.75;;;3.17;72.42
967;BME280;56108;48.730;9.304;2023-01-16T09:13:14;95241.38;;;3.25;73.12
967;BME280;56108;48.730;9.304;2023-01-16T09:15:34;95238.75;;;3.14;73.47
967;BME280;56108;48.730;9.304;2023-01-16T09:17:42;95252.47;;;3.18;71.69
967;BME280;56108;48.730;9.304;2023-01-16T09:19:50;95256.31;;;3.25;70.85
967;BME280;56108;48.730;9.304;2023-01-16T09:21:59;95268.34;;;3.38;70.25
967;BME280;56108;48.730;9.304;2023-01-16T09:24:10;95274.22;;;3.31;70.58
967;BME280;56108;48.730;9.304;2023-01-16T09:26:18;95274.94;;;3.33;70.77
967;BME280;56108;48.730;9.304;2023-01-16T09:28:29;95281.03;;;3.45;70.07
967;BME280;56108;48.730;9.304;2023-01-16T09:30:37;95287.59;;;3.39;70.09
967;BME280;56108;48.730;9.304;2023-01-16T09:32:46;95293.59;;;3.41;70.38
967;BME280;56108;48.730;9.304;2023-01-16T09:34:54;95286.78;;;3.61;67.44
967;BME280;56108;48.730;9.304;2023-01-16T09:37:02;95287.59;;;3.61;67.48
967;BME280;56108;48.730;9.304;2023-01-16T09:39:10;95274.19;;;3.64;65.14
967;BME280;56108;48.730;9.304;2023-01-16T09:41:18;95257.56;;;3.64;64.89
967;BME280;56108;48.730;9.304;2023-01-16T09:43:46;95249.81;;;3.62;64.72
967;BME280;56108;48.730;9.304;2023-01-16T09:45:59;95259.63;;;3.60;65.37
967;BME280;56108;48.730;9.304;2023-01-16T09:48:15;95264.41;;;3.66;64.04
967;BME280;56108;48.730;9.304;2023-01-16T09:50:45;95261.16;;;3.74;63.14
967;BME280;56108;48.730;9.304;2023-01-16T09:52:57;95262.44;;;3.80;62.95
967;BME280;56108;48.730;9.304;2023-01-16T09:55:22;95251.56;;;3.84;63.19
967;BME280;56108;48.730;9.304;2023-01-16T09:57:47;95250.13;;;3.91;61.98
967;BME280;56108;48.730;9.304;2023-01-16T10:00:15;95253.06;;;4.09;61.13
967;BME280;56108;48.730;9.304;2023-01-16T10:02:26;95255.34;;;4.35;59.35
967;BME280;56108;48.730;9.304;2023-01-16T10:04:35;95254.56;;;4.23;59.47
967;BME280;56108;48.730;9.304;2023-01-16T10:06:51;95256.50;;;4.42;58.54
967;BME280;56108;48.730;9.304;2023-01-16T10:09:14;95241.75;;;4.30;58.84
967;BME280;56108;48.730;9.304;2023-01-16T10:11:32;95241.59;;;4.31;58.99
967;BME280;56108;48.730;9.304;2023-01-16T10:13:58;95241.47;;;4.33;58.33
967;BME280;56108;48.730;9.304;2023-01-16T10:16:17;95238.47;;;4.37;57.47
967;BME280;56108;48.730;9.304;2023-01-16T10:18:37;95228.19;;;4.34;57.48
967;BME280;56108;48.730;9.304;2023-01-16T10:21:13;95218.50;;;4.35;56.84
967;BME280;56108;48.730;9.304;2023-01-16T10:23:38;95220.56;;;4.52;56.83
967;BME280;56108;48.730;9.304;2023-01-16T10:25:51;95207.38;;;4.52;55.75
967;BME280;56108;48.730;9.304;2023-01-16T10:28:11;95211.69;;;4.53;55.56
967;BME280;56108;48.730;9.304;2023-01-16T10:30:26;95199.63;;;4.51;56.64
967;BME280;56108;48.730;9.304;2023-01-16T10:32:42;95200.69;;;4.48;56.62
967;BME280;56108;48.730;9.304;2023-01-16T10:34:58;95183.06;;;4.39;56.21
967;BME280;56108;48.730;9.304;2023-01-16T10:37:08;95189.16;;;4.39;56.17
967;BME280;56108;48.730;9.304;2023-01-16T10:39:20;95190.00;;;4.40;56.70
967;BME280;56108;48.730;9.304;2023-01-16T10:41:29;95178.72;;;4.38;56.25
967;BME280;56108;48.730;9.304;2023-01-16T10:43:51;95178.28;;;4.33;56.60
967;BME280;56108;48.730;9.304;2023-01-16T10:46:15;95182.31;;;4.58;55.37
967;BME280;56108;48.730;9.304;2023-01-16T10:48:57;95170.28;;;4.55;54.50
967;BME280;56108;48.730;9.304;2023-01-16T10:51:18;95176.53;;;4.64;53.85
967;BME280;56108;48.730;9.304;2023-01-16T10:53:26;95172.44;;;4.71;53.61
967;BME280;56108;48.730;9.304;2023-01-16T10:55:35;95177.88;;;4.79;53.37
967;BME280;56108;48.730;9.304;2023-01-16T10:57:49;95172.75;;;4.78;53.55
967;BME280;56108;48.730;9.304;2023-01-16T11:00:03;95156.78;;;4.79;53.99
967;BME280;56108;48.730;9.304;2023-01-16T11:02:19;95156.84;;;4.89;54.16
967;BME280;56108;48.730;9.304;2023-01-16T11:04:35;95153.31;;;4.79;55.33
967;BME280;56108;48.730;9.304;2023-01-16T11:06:48;95143.50;;;4.81;56.48
967;BME280;56108;48.730;9.304;2023-01-16T11:09:00;95153.41;;;4.98;56.00
967;BME280;56108;48.730;9.304;2023-01-16T11:11:11;95139.56;;;5.06;56.61
967;BME280;56108;48.730;9.304;2023-01-16T11:13:32;95136.53;;;5.10;55.96
967;BME280;56108;48.730;9.304;2023-01-16T11:16:03;95131.38;;;4.99;56.21
967;BME280;56108;48.730;9.304;2023-01-16T11:18:27;95130.00;;;5.05;56.64
967;BME280;56108;48.730;9.304;2023-01-16T11:20:40;95121.94;;;5.06;57.83
967;BME280;56108;48.730;9.304;2023-01-16T11:22:55;95084.53;;;5.12;62.99
967;BME280;56108;48.730;9.304;2023-01-16T11:25:13;95070.63;;;5.10;68.82
967;BME280;56108;48.730;9.304;2023-01-16T11:27:26;95054.25;;;4.97;71.31
967;BME280;56108;48.730;9.304;2023-01-16T11:29:37;95054.09;;;4.98;70.65
967;BME280;56108;48.730;9.304;2023-01-16T11:31:49;95039.41;;;5.06;69.67
967;BME280;56108;48.730;9.304;2023-01-16T11:34:02;95030.94;;;5.02;69.96
967;BME280;56108;48.730;9.304;2023-01-16T11:36:15;95021.34;;;5.01;70.49
967;BME280;56108;48.730;9.304;2023-01-16T11:38:26;95015.25;;;4.91;70.14
967;BME280;56108;48.730;9.304;2023-01-16T11:40:44;95017.88;;;4.81;69.31
967;BME280;56108;48.730;9.304;2023-01-16T11:42:56;95003.72;;;4.82;71.49
967;BME280;56108;48.730;9.304;2023-01-16T11:45:19;94987.63;;;4.76;74.12
967;BME280;56108;48.730;9.304;2023-01-16T11:47:41;94977.56;;;4.50;78.13
967;BME280;56108;48.730;9.304;2023-01-16T11:49:51;94970.38;;;4.62;78.82
967;BME280;56108;48.730;9.304;2023-01-16T11:52:03;94959.28;;;4.58;80.10
967;BME280;56108;48.730;9.304;2023-01-16T11:54:13;94963.34;;;4.72;80.29
967;BME280;56108;48.730;9.304;2023-01-16T11:56:45;94945.16;;;4.69;78.27
967;BME280;56108;48.730;9.304;2023-01-16T11:59:04;94924.69;;;5.02;78.40
967;BME280;56108;48.730;9.304;2023-01-16T12:01:25;94933.16;;;4.86;76.38
967;BME280;56108;48.730;9.304;2023-01-16T12:04:05;94918.28;;;4.94;77.14
967;BME280;56108;48.730;9.304;2023-01-16T12:06:35;94922.72;;;4.94;78.12
967;BME280;56108;48.730;9.304;2023-01-16T12:11:47;94904.28;;;4.94;77.10
967;BME280;56108;48.730;9.304;2023-01-16T12:14:05;94896.66;;;5.10;77.80
967;BME280;56108;48.730;9.304;2023-01-16T12:16:28;94889.72;;;5.00;77.55